sensor_id;sensor_type;location;lat;lon;timestamp;P1;durP1;ratioP1;P2;durP2;ratioP2
7737;SDS011;29398;45.328;5.558;2023-04-15T00:00:09;3.20;;;2.33;;
7737;SDS011;29398;45.328;5.558;2023-04-15T00:01:14;2.63;;;2.30;;
7737;SDS011;29398;45.328;5.558;2023-04-15T00:02:19;2.90;;;2.60;;
7737;SDS011;29398;45.328;5.558;2023-04-15T00:03:22;4.53;;;2.42;;
7737;SDS011;29398;45.328;5.558;2023-04-15T00:04:23;3.90;;;2.50;;
7737;SDS011;29398;45.328;5.558;2023-04-15T00:05:25;3.03;;;2.72;;
7737;SDS011;29398;45.328;5.558;2023-04-15T00:06:29;2.78;;;2.58;;
7737;SDS011;29398;45.328;5.558;2023-04-15T00:07:31;3.67;;;2.40;;
7737;SDS011;29398;45.328;5.558;2023-04-15T00:08:32;4.30;;;2.35;;
7737;SDS011;29398;45.328;5.558;2023-04-15T00:09:34;3.00;;;2.58;;
7737;SDS011;29398;45.328;5.558;2023-04-15T00:10:35;3.95;;;2.72;;
7737;SDS011;29398;45.328;5.558;2023-04-15T00:11:37;3.28;;;2.47;;
7737;SDS011;29398;45.328;5.558;2023-04-15T00:12:38;3.60;;;2.65;;
7737;SDS011;29398;45.328;5.558;2023-04-15T00:13:41;2.72;;;2.42;;
7737;SDS011;29398;45.328;5.558;2023-04-15T00:14:43;3.10;;;2.80;;
7737;SDS011;29398;45.328;5.558;2023-04-15T00:15:45;4.80;;;2.80;;
7737;SDS011;29398;45.328;5.558;2023-04-15T00:16:46;3.20;;;2.88;;
7737;SDS011;29398;45.328;5.558;2023-04-15T00:17:55;3.00;;;2.70;;
7737;SDS011;29398;45.328;5.558;2023-04-15T00:18:57;3.30;;;3.00;;
7737;SDS011;29398;45.328;5.558;2023-04-15T00:19:59;4.88;;;3.08;;
7737;SDS011;29398;45.328;5.558;2023-04-15T00:21:00;3.42;;;3.13;;
7737;SDS011;29398;45.328;5.558;2023-04-15T00:22:02;3.45;;;3.10;;
7737;SDS011;29398;45.328;5.558;2023-04-15T00:23:03;4.80;;;3.08;;
7737;SDS011;29398;45.328;5.558;2023-04-15T00:24:05;4.15;;;3.10;;
7737;SDS011;29398;45.328;5.558;2023-04-15T00:25:07;3.55;;;3.10;;
7737;SDS011;29398;45.328;5.558;2023-04-15T00:26:09;3.95;;;3.45;;
7737;SDS011;29398;45.328;5.558;2023-04-15T00:27:12;3.83;;;3.40;;
7737;SDS011;29398;45.328;5.558;2023-04-15T00:28:14;3.78;;;3.42;;
7737;SDS011;29398;45.328;5.558;2023-04-15T00:29:16;3.65;;;3.10;;
7737;SDS011;29398;45.328;5.558;2023-04-15T00:30:18;4.25;;;3.45;;
7737;SDS011;29398;45.328;5.558;2023-04-15T00:31:19;6.63;;;3.20;;
7737;SDS011;29398;45.328;5.558;2023-04-15T00:32:22;4.40;;;3.50;;
7737;SDS011;29398;45.328;5.558;2023-04-15T00:33:24;4.90;;;3.40;;
7737;SDS011;29398;45.328;5.558;2023-04-15T00:34:26;3.95;;;3.53;;
7737;SDS011;29398;45.328;5.558;2023-04-15T00:35:28;5.78;;;3.38;;
7737;SDS011;29398;45.328;5.558;2023-04-15T00:36:31;3.97;;;2.90;;
7737;SDS011;29398;45.328;5.558;2023-04-15T00:37:34;3.40;;;3.10;;
7737;SDS011;29398;45.328;5.558;2023-04-15T00:38:36;5.13;;;3.10;;
7737;SDS011;29398;45.328;5.558;2023-04-15T00:39:38;5.38;;;3.30;;
7737;SDS011;29398;45.328;5.558;2023-04-15T00:40:40;3.97;;;2.97;;
7737;SDS011;29398;45.328;5.558;2023-04-15T00:41:42;5.65;;;3.22;;
7737;SDS011;29398;45.328;5.558;2023-04-15T00:42:46;2.75;;;2.55;;
7737;SDS011;29398;45.328;5.558;2023-04-15T00:43:47;5.38;;;2.90;;
7737;SDS011;29398;45.328;5.558;2023-04-15T00:44:49;3.80;;;2.97;;
7737;SDS011;29398;45.328;5.558;2023-04-15T00:45:50;3.97;;;2.83;;
7737;SDS011;29398;45.328;5.558;2023-04-15T00:46:55;3.25;;;2.60;;
7737;SDS011;29398;45.328;5.558;2023-04-15T00:47:56;4.70;;;2.85;;
7737;SDS011;29398;45.328;5.558;2023-04-15T00:49:01;2.47;;;2.28;;
7737;SDS011;29398;45.328;5.558;2023-04-15T00:50:04;3.15;;;2.38;;
7737;SDS011;29398;45.328;5.558;2023-04-15T00:51:06;3.97;;;2.03;;
7737;SDS011;29398;45.328;5.558;2023-04-15T00:52:08;2.72;;;2.00;;
7737;SDS011;29398;45.328;5.558;2023-04-15T00:53:10;2.72;;;2.10;;
7737;SDS011;29398;45.328;5.558;2023-04-15T00:54:11;2.10;;;1.90;;
7737;SDS011;29398;45.328;5.558;2023-04-15T00:55:14;3.00;;;1.80;;
7737;SDS011;29398;45.328;5.558;2023-04-15T00:56:15;2.55;;;1.40;;
7737;SDS011;29398;45.328;5.558;2023-04-15T00:57:20;3.40;;;1.85;;
7737;SDS011;29398;45.328;5.558;2023-04-15T00:58:22;2.63;;;1.95;;
7737;SDS011;29398;45.328;5.558;2023-04-15T00:59:25;2.03;;;1.70;;
7737;SDS011;29398;45.328;5.558;2023-04-15T01:00:26;1.73;;;1.45;;
7737;SDS011;29398;45.328;5.558;2023-04-15T01:01:29;2.70;;;1.40;;
7737;SDS011;29398;45.328;5.558;2023-04-15T01:02:32;2.90;;;1.52;;
7737;SDS011;29398;45.328;5.558;2023-04-15T01:03:35;3.13;;;1.63;;
7737;SDS011;29398;45.328;5.558;2023-04-15T01:04:38;1.80;;;1.60;;
7737;SDS011;29398;45.328;5.558;2023-04-15T01:05:40;2.13;;;1.90;;
7737;SDS011;29398;45.328;5.558;2023-04-15T01:06:41;1.80;;;1.50;;
7737;SDS011;29398;45.328;5.558;2023-04-15T01:07:44;2.47;;;1.50;;
7737;SDS011;29398;45.328;5.558;2023-04-15T01:08:46;2.10;;;1.90;;
7737;SDS011;29398;45.328;5.558;2023-04-15T01:09:49;2.33;;;1.67;;
7737;SDS011;29398;45.328;5.558;2023-04-15T01:10:50;2.25;;;1.45;;
7737;SDS011;29398;45.328;5.558;2023-04-15T01:11:52;3.92;;;1.75;;
7737;SDS011;29398;45.328;5.558;2023-04-15T01:12:55;1.90;;;1.73;;
7737;SDS011;29398;45.328;5.558;2023-04-15T01:13:57;3.05;;;1.60;;
7737;SDS011;29398;45.328;5.558;2023-04-15T01:14:59;4.28;;;2.10;;
7737;SDS011;29398;45.328;5.558;2023-04-15T01:16:01;4.45;;;1.88;;
7737;SDS011;29398;45.328;5.558;2023-04-15T01:17:03;5.63;;;1.95;;
7737;SDS011;29398;45.328;5.558;2023-04-15T01:18:06;2.45;;;2.05;;
7737;SDS011;29398;45.328;5.558;2023-04-15T01:19:11;3.25;;;2.05;;
7737;SDS011;29398;45.328;5.558;2023-04-15T01:20:17;2.13;;;1.92;;
7737;SDS011;29398;45.328;5.558;2023-04-15T01:21:19;2.53;;;1.92;;
7737;SDS011;29398;45.328;5.558;2023-04-15T01:22:21;3.95;;;2.08;;
7737;SDS011;29398;45.328;5.558;2023-04-15T01:23:24;2.30;;;2.10;;
7737;SDS011;29398;45.328;5.558;2023-04-15T01:24:25;2.17;;;1.98;;
7737;SDS011;29398;45.328;5.558;2023-04-15T01:25:32;3.13;;;2.13;;
7737;SDS011;29398;45.328;5.558;2023-04-15T01:26:34;2.85;;;2.33;;
7737;SDS011;29398;45.328;5.558;2023-04-15T01:27:40;2.38;;;2.15;;
7737;SDS011;29398;45.328;5.558;2023-04-15T01:28:41;2.28;;;1.90;;
7737;SDS011;29398;45.328;5.558;2023-04-15T01:29:44;5.35;;;2.40;;
7737;SDS011;29398;45.328;5.558;2023-04-15T01:30:45;4.22;;;2.40;;
7737;SDS011;29398;45.328;5.558;2023-04-15T01:31:49;2.72;;;1.90;;
7737;SDS011;29398;45.328;5.558;2023-04-15T01:32:51;2.00;;;1.80;;
7737;SDS011;29398;45.328;5.558;2023-04-15T01:33:53;1.90;;;1.70;;
7737;SDS011;29398;45.328;5.558;2023-04-15T01:34:55;2.75;;;1.80;;
7737;SDS011;29398;45.328;5.558;2023-04-15T01:35:57;2.78;;;1.90;;
7737;SDS011;29398;45.328;5.558;2023-04-15T01:36:59;5.40;;;2.10;;
7737;SDS011;29398;45.328;5.558;2023-04-15T01:38:02;3.58;;;2.28;;
7737;SDS011;29398;45.328;5.558;2023-04-15T01:39:05;3.53;;;2.20;;
7737;SDS011;29398;45.328;5.558;2023-04-15T01:40:08;3.15;;;2.47;;
7737;SDS011;29398;45.328;5.558;2023-04-15T01:41:11;2.97;;;2.40;;
7737;SDS011;29398;45.328;5.558;2023-04-15T01:42:14;2.22;;;1.95;;
7737;SDS011;29398;45.328;5.558;2023-04-15T01:43:16;3.60;;;2.20;;
7737;SDS011;29398;45.328;5.558;2023-04-15T01:44:18;3.05;;;2.10;;
7737;SDS011;29398;45.328;5.558;2023-04-15T01:45:19;2.40;;;2.20;;
7737;SDS011;29398;45.328;5.558;2023-04-15T01:46:21;3.67;;;2.53;;
7737;SDS011;29398;45.328;5.558;2023-04-15T01:47:22;2.60;;;2.25;;
7737;SDS011;29398;45.328;5.558;2023-04-15T01:48:25;2.47;;;2.28;;
7737;SDS011;29398;45.328;5.558;2023-04-15T01:49:26;3.30;;;2.28;;
7737;SDS011;29398;45.328;5.558;2023-04-15T01:50:28;2.58;;;2.17;;
7737;SDS011;29398;45.328;5.558;2023-04-15T01:51:29;3.65;;;2.70;;
7737;SDS011;29398;45.328;5.558;2023-04-15T01:52:32;5.00;;;3.03;;
7737;SDS011;29398;45.328;5.558;2023-04-15T01:53:33;3.50;;;3.20;;
7737;SDS011;29398;45.328;5.558;2023-04-15T01:54:36;5.55;;;3.17;;
7737;SDS011;29398;45.328;5.558;2023-04-15T01:55:37;2.88;;;2.58;;
7737;SDS011;29398;45.328;5.558;2023-04-15T01:56:41;5.57;;;3.72;;
7737;SDS011;29398;45.328;5.558;2023-04-15T01:57:43;3.47;;;2.72;;
7737;SDS011;29398;45.328;5.558;2023-04-15T01:58:45;3.28;;;2.97;;
7737;SDS011;29398;45.328;5.558;2023-04-15T01:59:46;3.88;;;3.17;;
7737;SDS011;29398;45.328;5.558;2023-04-15T02:00:48;3.97;;;3.55;;
7737;SDS011;29398;45.328;5.558;2023-04-15T02:01:51;4.78;;;3.33;;
7737;SDS011;29398;45.328;5.558;2023-04-15T02:02:52;3.75;;;3.45;;
7737;SDS011;29398;45.328;5.558;2023-04-15T02:03:54;4.38;;;3.80;;
7737;SDS011;29398;45.328;5.558;2023-04-15T02:04:55;4.28;;;3.88;;
7737;SDS011;29398;45.328;5.558;2023-04-15T02:05:58;3.88;;;3.50;;
7737;SDS011;29398;45.328;5.558;2023-04-15T02:06:59;3.30;;;3.00;;
7737;SDS011;29398;45.328;5.558;2023-04-15T02:08:01;4.95;;;3.75;;
7737;SDS011;29398;45.328;5.558;2023-04-15T02:09:03;3.83;;;3.45;;
7737;SDS011;29398;45.328;5.558;2023-04-15T02:10:05;7.32;;;3.38;;
7737;SDS011;29398;45.328;5.558;2023-04-15T02:11:09;4.15;;;3.75;;
7737;SDS011;29398;45.328;5.558;2023-04-15T02:12:12;3.97;;;3.33;;
7737;SDS011;29398;45.328;5.558;2023-04-15T02:13:13;3.90;;;3.50;;
7737;SDS011;29398;45.328;5.558;2023-04-15T02:14:16;4.03;;;3.67;;
7737;SDS011;29398;45.328;5.558;2023-04-15T02:15:17;4.30;;;3.90;;
7737;SDS011;29398;45.328;5.558;2023-04-15T02:16:19;4.00;;;3.50;;
7737;SDS011;29398;45.328;5.558;2023-04-15T02:17:20;4.18;;;3.75;;
7737;SDS011;29398;45.328;5.558;2023-04-15T02:18:22;6.00;;;3.47;;
7737;SDS011;29398;45.328;5.558;2023-04-15T02:19:23;3.67;;;3.30;;
7737;SDS011;29398;45.328;5.558;2023-04-15T02:20:25;4.18;;;3.13;;
7737;SDS011;29398;45.328;5.558;2023-04-15T02:21:26;3.65;;;3.35;;
7737;SDS011;29398;45.328;5.558;2023-04-15T02:22:28;3.58;;;3.28;;
7737;SDS011;29398;45.328;5.558;2023-04-15T02:23:29;5.88;;;3.45;;
7737;SDS011;29398;45.328;5.558;2023-04-15T02:24:31;5.10;;;3.42;;
7737;SDS011;29398;45.328;5.558;2023-04-15T02:25:32;5.07;;;3.60;;
7737;SDS011;29398;45.328;5.558;2023-04-15T02:26:35;3.75;;;3.45;;
7737;SDS011;29398;45.328;5.558;2023-04-15T02:27:37;5.20;;;3.47;;
7737;SDS011;29398;45.328;5.558;2023-04-15T02:28:39;4.47;;;3.42;;
7737;SDS011;29398;45.328;5.558;2023-04-15T02:29:40;4.20;;;3.17;;
7737;SDS011;29398;45.328;5.558;2023-04-15T02:30:46;3.03;;;2.83;;
7737;SDS011;29398;45.328;5.558;2023-04-15T02:31:47;5.20;;;3.20;;
7737;SDS011;29398;45.328;5.558;2023-04-15T02:32:49;2.80;;;2.58;;
7737;SDS011;29398;45.328;5.558;2023-04-15T02:33:51;3.17;;;2.88;;
7737;SDS011;29398;45.328;5.558;2023-04-15T02:34:53;4.28;;;3.10;;
7737;SDS011;29398;45.328;5.558;2023-04-15T02:35:54;4.18;;;3.42;;
7737;SDS011;29398;45.328;5.558;2023-04-15T02:36:56;3.40;;;3.10;;
7737;SDS011;29398;45.328;5.558;2023-04-15T02:37:58;4.00;;;3.50;;
7737;SDS011;29398;45.328;5.558;2023-04-15T02:39:00;3.63;;;3.10;;
7737;SDS011;29398;45.328;5.558;2023-04-15T02:40:03;4.03;;;2.95;;
7737;SDS011;29398;45.328;5.558;2023-04-15T02:41:06;3.92;;;2.85;;
7737;SDS011;29398;45.328;5.558;2023-04-15T02:42:08;3.50;;;3.10;;
7737;SDS011;29398;45.328;5.558;2023-04-15T02:43:12;3.00;;;2.80;;
7737;SDS011;29398;45.328;5.558;2023-04-15T02:44:13;4.45;;;3.50;;
7737;SDS011;29398;45.328;5.558;2023-04-15T02:45:17;4.35;;;3.80;;
7737;SDS011;29398;45.328;5.558;2023-04-15T02:46:23;4.00;;;3.60;;
7737;SDS011;29398;45.328;5.558;2023-04-15T02:47:25;4.88;;;3.40;;
7737;SDS011;29398;45.328;5.558;2023-04-15T02:48:26;3.97;;;3.58;;
7737;SDS011;29398;45.328;5.558;2023-04-15T02:49:28;6.05;;;4.07;;
7737;SDS011;29398;45.328;5.558;2023-04-15T02:50:30;4.60;;;4.15;;
7737;SDS011;29398;45.328;5.558;2023-04-15T02:51:32;4.63;;;4.10;;
7737;SDS011;29398;45.328;5.558;2023-04-15T02:52:33;4.88;;;4.05;;
7737;SDS011;29398;45.328;5.558;2023-04-15T02:53:35;6.07;;;4.47;;
7737;SDS011;29398;45.328;5.558;2023-04-15T02:54:36;4.88;;;4.00;;
7737;SDS011;29398;45.328;5.558;2023-04-15T02:55:38;5.72;;;4.60;;
7737;SDS011;29398;45.328;5.558;2023-04-15T02:56:40;5.28;;;4.75;;
7737;SDS011;29398;45.328;5.558;2023-04-15T02:57:42;5.20;;;4.35;;
7737;SDS011;29398;45.328;5.558;2023-04-15T02:58:45;4.78;;;4.28;;
7737;SDS011;29398;45.328;5.558;2023-04-15T02:59:49;5.05;;;4.55;;
7737;SDS011;29398;45.328;5.558;2023-04-15T03:00:51;5.28;;;4.75;;
7737;SDS011;29398;45.328;5.558;2023-04-15T03:01:53;4.78;;;4.28;;
7737;SDS011;29398;45.328;5.558;2023-04-15T03:02:57;4.93;;;4.53;;
7737;SDS011;29398;45.328;5.558;2023-04-15T03:03:59;5.60;;;4.05;;
7737;SDS011;29398;45.328;5.558;2023-04-15T03:05:00;4.32;;;3.90;;
7737;SDS011;29398;45.328;5.558;2023-04-15T03:06:03;5.10;;;3.85;;
7737;SDS011;29398;45.328;5.558;2023-04-15T03:07:04;4.07;;;3.78;;
7737;SDS011;29398;45.328;5.558;2023-04-15T03:08:06;4.00;;;3.45;;
7737;SDS011;29398;45.328;5.558;2023-04-15T03:09:08;4.00;;;3.63;;
7737;SDS011;29398;45.328;5.558;2023-04-15T03:10:11;3.92;;;3.63;;
7737;SDS011;29398;45.328;5.558;2023-04-15T03:11:13;4.13;;;3.72;;
7737;SDS011;29398;45.328;5.558;2023-04-15T03:12:16;3.85;;;3.55;;
7737;SDS011;29398;45.328;5.558;2023-04-15T03:13:18;3.75;;;3.42;;
7737;SDS011;29398;45.328;5.558;2023-04-15T03:14:23;3.40;;;3.10;;
7737;SDS011;29398;45.328;5.558;2023-04-15T03:15:25;4.07;;;3.63;;
7737;SDS011;29398;45.328;5.558;2023-04-15T03:16:28;2.72;;;2.53;;
7737;SDS011;29398;45.328;5.558;2023-04-15T03:17:31;2.88;;;2.53;;
7737;SDS011;29398;45.328;5.558;2023-04-15T03:18:33;3.45;;;2.78;;
7737;SDS011;29398;45.328;5.558;2023-04-15T03:19:36;3.28;;;2.80;;
7737;SDS011;29398;45.328;5.558;2023-04-15T03:20:38;4.05;;;2.90;;
7737;SDS011;29398;45.328;5.558;2023-04-15T03:21:40;3.13;;;2.83;;
7737;SDS011;29398;45.328;5.558;2023-04-15T03:22:42;3.65;;;3.15;;
7737;SDS011;29398;45.328;5.558;2023-04-15T03:23:45;4.47;;;3.10;;
7737;SDS011;29398;45.328;5.558;2023-04-15T03:24:49;3.40;;;3.10;;
7737;SDS011;29398;45.328;5.558;2023-04-15T03:25:50;3.50;;;3.20;;
7737;SDS011;29398;45.328;5.558;2023-04-15T03:26:56;4.18;;;3.20;;
7737;SDS011;29398;45.328;5.558;2023-04-15T03:27:58;4.35;;;3.58;;
7737;SDS011;29398;45.328;5.558;2023-04-15T03:29:00;3.33;;;3.05;;
7737;SDS011;29398;45.328;5.558;2023-04-15T03:30:03;3.80;;;3.50;;
7737;SDS011;29398;45.328;5.558;2023-04-15T03:31:08;3.00;;;2.80;;
7737;SDS011;29398;45.328;5.558;2023-04-15T03:32:10;3.45;;;3.17;;
7737;SDS011;29398;45.328;5.558;2023-04-15T03:33:12;3.50;;;3.20;;
7737;SDS011;29398;45.328;5.558;2023-04-15T03:34:13;3.35;;;3.05;;
7737;SDS011;29398;45.328;5.558;2023-04-15T03:35:15;3.35;;;3.10;;
7737;SDS011;29398;45.328;5.558;2023-04-15T03:36:17;6.00;;;3.20;;
7737;SDS011;29398;45.328;5.558;2023-04-15T03:37:19;2.95;;;2.63;;
7737;SDS011;29398;45.328;5.558;2023-04-15T03:38:20;3.25;;;3.05;;
7737;SDS011;29398;45.328;5.558;2023-04-15T03:39:23;3.35;;;3.05;;
7737;SDS011;29398;45.328;5.558;2023-04-15T03:40:24;3.00;;;2.80;;
7737;SDS011;29398;45.328;5.558;2023-04-15T03:41:26;2.97;;;2.78;;
7737;SDS011;29398;45.328;5.558;2023-04-15T03:42:27;3.78;;;2.78;;
7737;SDS011;29398;45.328;5.558;2023-04-15T03:43:29;3.55;;;3.25;;
7737;SDS011;29398;45.328;5.558;2023-04-15T03:44:30;3.22;;;3.00;;
7737;SDS011;29398;45.328;5.558;2023-04-15T03:45:34;3.83;;;2.72;;
7737;SDS011;29398;45.328;5.558;2023-04-15T03:46:35;5.95;;;3.33;;
7737;SDS011;29398;45.328;5.558;2023-04-15T03:47:37;3.40;;;3.00;;
7737;SDS011;29398;45.328;5.558;2023-04-15T03:48:38;3.63;;;3.28;;
7737;SDS011;29398;45.328;5.558;2023-04-15T03:49:40;3.17;;;2.90;;
7737;SDS011;29398;45.328;5.558;2023-04-15T03:50:41;3.45;;;3.15;;
7737;SDS011;29398;45.328;5.558;2023-04-15T03:51:43;3.65;;;3.08;;
7737;SDS011;29398;45.328;5.558;2023-04-15T03:52:45;3.25;;;2.95;;
7737;SDS011;29398;45.328;5.558;2023-04-15T03:53:47;3.67;;;2.95;;
7737;SDS011;29398;45.328;5.558;2023-04-15T03:54:48;3.13;;;2.83;;
7737;SDS011;29398;45.328;5.558;2023-04-15T03:55:50;4.30;;;2.92;;
7737;SDS011;29398;45.328;5.558;2023-04-15T03:56:51;3.40;;;2.63;;
7737;SDS011;29398;45.328;5.558;2023-04-15T03:57:53;3.13;;;2.80;;
7737;SDS011;29398;45.328;5.558;2023-04-15T03:58:54;3.15;;;2.35;;
7737;SDS011;29398;45.328;5.558;2023-04-15T03:59:56;2.70;;;2.50;;
7737;SDS011;29398;45.328;5.558;2023-04-15T04:00:59;2.88;;;2.67;;
7737;SDS011;29398;45.328;5.558;2023-04-15T04:02:01;2.40;;;2.20;;
7737;SDS011;29398;45.328;5.558;2023-04-15T04:03:02;2.70;;;2.50;;
7737;SDS011;29398;45.328;5.558;2023-04-15T04:04:04;2.50;;;2.30;;
7737;SDS011;29398;45.328;5.558;2023-04-15T04:05:06;2.58;;;2.38;;
7737;SDS011;29398;45.328;5.558;2023-04-15T04:06:08;2.78;;;2.47;;
7737;SDS011;29398;45.328;5.558;2023-04-15T04:07:13;3.53;;;2.65;;
7737;SDS011;29398;45.328;5.558;2023-04-15T04:08:16;2.92;;;2.42;;
7737;SDS011;29398;45.328;5.558;2023-04-15T04:09:18;3.25;;;2.95;;
7737;SDS011;29398;45.328;5.558;2023-04-15T04:10:20;3.38;;;2.55;;
7737;SDS011;29398;45.328;5.558;2023-04-15T04:11:22;2.55;;;2.35;;
7737;SDS011;29398;45.328;5.558;2023-04-15T04:12:24;4.05;;;2.83;;
7737;SDS011;29398;45.328;5.558;2023-04-15T04:13:25;2.50;;;2.30;;
7737;SDS011;29398;45.328;5.558;2023-04-15T04:14:27;3.55;;;2.88;;
7737;SDS011;29398;45.328;5.558;2023-04-15T04:15:29;3.35;;;2.58;;
7737;SDS011;29398;45.328;5.558;2023-04-15T04:16:32;3.42;;;2.10;;
7737;SDS011;29398;45.328;5.558;2023-04-15T04:17:33;2.53;;;2.33;;
7737;SDS011;29398;45.328;5.558;2023-04-15T04:18:35;2.70;;;2.50;;
7737;SDS011;29398;45.328;5.558;2023-04-15T04:19:37;4.10;;;2.80;;
7737;SDS011;29398;45.328;5.558;2023-04-15T04:20:39;2.92;;;2.70;;
7737;SDS011;29398;45.328;5.558;2023-04-15T04:21:40;2.80;;;2.60;;
7737;SDS011;29398;45.328;5.558;2023-04-15T04:22:42;3.38;;;2.85;;
7737;SDS011;29398;45.328;5.558;2023-04-15T04:23:43;3.67;;;2.85;;
7737;SDS011;29398;45.328;5.558;2023-04-15T04:24:45;2.65;;;2.45;;
7737;SDS011;29398;45.328;5.558;2023-04-15T04:25:46;2.85;;;2.50;;
7737;SDS011;29398;45.328;5.558;2023-04-15T04:26:48;4.30;;;3.00;;
7737;SDS011;29398;45.328;5.558;2023-04-15T04:27:50;4.05;;;3.00;;
7737;SDS011;29398;45.328;5.558;2023-04-15T04:28:52;3.70;;;3.40;;
7737;SDS011;29398;45.328;5.558;2023-04-15T04:29:53;4.93;;;3.22;;
7737;SDS011;29398;45.328;5.558;2023-04-15T04:30:55;5.30;;;2.88;;
7737;SDS011;29398;45.328;5.558;2023-04-15T04:31:58;3.15;;;2.85;;
7737;SDS011;29398;45.328;5.558;2023-04-15T04:33:00;4.30;;;3.15;;
7737;SDS011;29398;45.328;5.558;2023-04-15T04:34:01;3.72;;;3.42;;
7737;SDS011;29398;45.328;5.558;2023-04-15T04:35:03;3.72;;;3.42;;
7737;SDS011;29398;45.328;5.558;2023-04-15T04:36:05;3.47;;;3.17;;
7737;SDS011;29398;45.328;5.558;2023-04-15T04:37:07;3.83;;;3.42;;
7737;SDS011;29398;45.328;5.558;2023-04-15T04:38:08;3.42;;;3.13;;
7737;SDS011;29398;45.328;5.558;2023-04-15T04:39:10;4.22;;;3.85;;
7737;SDS011;29398;45.328;5.558;2023-04-15T04:40:11;4.05;;;3.63;;
7737;SDS011;29398;45.328;5.558;2023-04-15T04:41:14;10.45;;;3.63;;
7737;SDS011;29398;45.328;5.558;2023-04-15T04:42:15;3.75;;;2.92;;
7737;SDS011;29398;45.328;5.558;2023-04-15T04:43:17;4.88;;;3.35;;
7737;SDS011;29398;45.328;5.558;2023-04-15T04:44:18;3.92;;;3.63;;
7737;SDS011;29398;45.328;5.558;2023-04-15T04:45:21;3.28;;;3.08;;
7737;SDS011;29398;45.328;5.558;2023-04-15T04:46:22;4.00;;;3.58;;
7737;SDS011;29398;45.328;5.558;2023-04-15T04:47:26;3.90;;;3.58;;
7737;SDS011;29398;45.328;5.558;2023-04-15T04:48:27;3.80;;;3.50;;
7737;SDS011;29398;45.328;5.558;2023-04-15T04:49:29;3.50;;;3.20;;
7737;SDS011;29398;45.328;5.558;2023-04-15T04:50:30;4.60;;;4.18;;
7737;SDS011;29398;45.328;5.558;2023-04-15T04:51:32;4.57;;;4.15;;
7737;SDS011;29398;45.328;5.558;2023-04-15T04:52:33;4.72;;;4.25;;
7737;SDS011;29398;45.328;5.558;2023-04-15T04:53:36;5.20;;;4.70;;
7737;SDS011;29398;45.328;5.558;2023-04-15T04:54:37;4.63;;;4.13;;
7737;SDS011;29398;45.328;5.558;2023-04-15T04:55:39;4.03;;;3.65;;
7737;SDS011;29398;45.328;5.558;2023-04-15T04:56:40;3.95;;;3.65;;
7737;SDS011;29398;45.328;5.558;2023-04-15T04:57:42;5.32;;;3.95;;
7737;SDS011;29398;45.328;5.558;2023-04-15T04:58:43;5.03;;;4.10;;
7737;SDS011;29398;45.328;5.558;2023-04-15T04:59:46;6.18;;;4.32;;
7737;SDS011;29398;45.328;5.558;2023-04-15T05:00:47;4.57;;;4.18;;
7737;SDS011;29398;45.328;5.558;2023-04-15T05:01:49;4.60;;;4.20;;
7737;SDS011;29398;45.328;5.558;2023-04-15T05:02:52;4.93;;;4.20;;
7737;SDS011;29398;45.328;5.558;2023-04-15T05:03:54;5.57;;;4.20;;
7737;SDS011;29398;45.328;5.558;2023-04-15T05:04:55;5.68;;;4.65;;
7737;SDS011;29398;45.328;5.558;2023-04-15T05:05:57;4.82;;;4.32;;
7737;SDS011;29398;45.328;5.558;2023-04-15T05:06:58;5.20;;;4.30;;
7737;SDS011;29398;45.328;5.558;2023-04-15T05:08:00;6.43;;;3.60;;
7737;SDS011;29398;45.328;5.558;2023-04-15T05:09:01;5.50;;;5.00;;
7737;SDS011;29398;45.328;5.558;2023-04-15T05:10:04;5.03;;;4.57;;
7737;SDS011;29398;45.328;5.558;2023-04-15T05:11:06;5.25;;;4.70;;
7737;SDS011;29398;45.328;5.558;2023-04-15T05:12:08;5.53;;;4.78;;
7737;SDS011;29398;45.328;5.558;2023-04-15T05:13:14;5.60;;;5.00;;
7737;SDS011;29398;45.328;5.558;2023-04-15T05:14:16;5.70;;;4.70;;
7737;SDS011;29398;45.328;5.558;2023-04-15T05:15:17;4.65;;;4.18;;
7737;SDS011;29398;45.328;5.558;2023-04-15T05:16:19;6.10;;;4.13;;
7737;SDS011;29398;45.328;5.558;2023-04-15T05:17:20;4.63;;;4.22;;
7737;SDS011;29398;45.328;5.558;2023-04-15T05:18:24;4.47;;;3.97;;
7737;SDS011;29398;45.328;5.558;2023-04-15T05:19:26;7.90;;;5.43;;
7737;SDS011;29398;45.328;5.558;2023-04-15T05:20:28;5.50;;;5.00;;
7737;SDS011;29398;45.328;5.558;2023-04-15T05:21:29;4.80;;;4.30;;
7737;SDS011;29398;45.328;5.558;2023-04-15T05:22:31;4.93;;;4.40;;
7737;SDS011;29398;45.328;5.558;2023-04-15T05:23:32;4.75;;;4.35;;
7737;SDS011;29398;45.328;5.558;2023-04-15T05:24:35;5.38;;;4.70;;
7737;SDS011;29398;45.328;5.558;2023-04-15T05:25:36;4.60;;;4.13;;
7737;SDS011;29398;45.328;5.558;2023-04-15T05:26:38;6.45;;;5.15;;
7737;SDS011;29398;45.328;5.558;2023-04-15T05:27:39;6.55;;;5.47;;
7737;SDS011;29398;45.328;5.558;2023-04-15T05:28:41;5.75;;;4.22;;
7737;SDS011;29398;45.328;5.558;2023-04-15T05:29:42;4.70;;;4.30;;
7737;SDS011;29398;45.328;5.558;2023-04-15T05:30:44;6.20;;;4.68;;
7737;SDS011;29398;45.328;5.558;2023-04-15T05:31:45;5.25;;;4.05;;
7737;SDS011;29398;45.328;5.558;2023-04-15T05:32:47;4.40;;;3.92;;
7737;SDS011;29398;45.328;5.558;2023-04-15T05:33:50;5.60;;;3.75;;
7737;SDS011;29398;45.328;5.558;2023-04-15T05:34:52;6.18;;;3.08;;
7737;SDS011;29398;45.328;5.558;2023-04-15T05:35:55;4.15;;;3.13;;
7737;SDS011;29398;45.328;5.558;2023-04-15T05:36:56;2.38;;;2.17;;
7737;SDS011;29398;45.328;5.558;2023-04-15T05:37:58;3.20;;;2.03;;
7737;SDS011;29398;45.328;5.558;2023-04-15T05:38:59;2.40;;;2.20;;
7737;SDS011;29398;45.328;5.558;2023-04-15T05:40:01;2.38;;;2.17;;
7737;SDS011;29398;45.328;5.558;2023-04-15T05:41:03;3.13;;;2.22;;
7737;SDS011;29398;45.328;5.558;2023-04-15T05:42:05;2.28;;;2.08;;
7737;SDS011;29398;45.328;5.558;2023-04-15T05:43:07;2.40;;;2.00;;
7737;SDS011;29398;45.328;5.558;2023-04-15T05:44:09;1.83;;;1.73;;
7737;SDS011;29398;45.328;5.558;2023-04-15T05:45:10;3.53;;;2.42;;
7737;SDS011;29398;45.328;5.558;2023-04-15T05:46:12;2.47;;;2.28;;
7737;SDS011;29398;45.328;5.558;2023-04-15T05:47:13;2.45;;;2.08;;
7737;SDS011;29398;45.328;5.558;2023-04-15T05:48:16;2.85;;;2.10;;
7737;SDS011;29398;45.328;5.558;2023-04-15T05:49:18;3.70;;;2.20;;
7737;SDS011;29398;45.328;5.558;2023-04-15T05:50:20;5.43;;;2.20;;
7737;SDS011;29398;45.328;5.558;2023-04-15T05:51:21;2.75;;;2.20;;
7737;SDS011;29398;45.328;5.558;2023-04-15T05:52:23;1.98;;;1.77;;
7737;SDS011;29398;45.328;5.558;2023-04-15T05:53:25;3.08;;;2.78;;
7737;SDS011;29398;45.328;5.558;2023-04-15T05:54:27;2.58;;;2.38;;
7737;SDS011;29398;45.328;5.558;2023-04-15T05:55:28;2.45;;;2.25;;
7737;SDS011;29398;45.328;5.558;2023-04-15T05:56:30;2.80;;;2.60;;
7737;SDS011;29398;45.328;5.558;2023-04-15T05:57:31;3.53;;;2.58;;
7737;SDS011;29398;45.328;5.558;2023-04-15T05:58:33;2.78;;;2.55;;
7737;SDS011;29398;45.328;5.558;2023-04-15T05:59:35;2.60;;;2.25;;
7737;SDS011;29398;45.328;5.558;2023-04-15T06:00:38;2.80;;;2.60;;
7737;SDS011;29398;45.328;5.558;2023-04-15T06:01:39;3.42;;;2.75;;
7737;SDS011;29398;45.328;5.558;2023-04-15T06:02:42;4.30;;;2.95;;
7737;SDS011;29398;45.328;5.558;2023-04-15T06:03:44;2.78;;;2.58;;
7737;SDS011;29398;45.328;5.558;2023-04-15T06:04:46;2.90;;;2.70;;
7737;SDS011;29398;45.328;5.558;2023-04-15T06:05:48;4.45;;;2.55;;
7737;SDS011;29398;45.328;5.558;2023-04-15T06:06:49;4.20;;;3.10;;
7737;SDS011;29398;45.328;5.558;2023-04-15T06:07:52;3.53;;;3.00;;
7737;SDS011;29398;45.328;5.558;2023-04-15T06:08:53;3.33;;;2.92;;
7737;SDS011;29398;45.328;5.558;2023-04-15T06:09:55;3.75;;;3.45;;
7737;SDS011;29398;45.328;5.558;2023-04-15T06:10:57;3.70;;;3.45;;
7737;SDS011;29398;45.328;5.558;2023-04-15T06:11:59;4.47;;;3.42;;
7737;SDS011;29398;45.328;5.558;2023-04-15T06:13:01;3.30;;;3.00;;
7737;SDS011;29398;45.328;5.558;2023-04-15T06:14:03;3.97;;;3.67;;
7737;SDS011;29398;45.328;5.558;2023-04-15T06:15:04;4.25;;;3.80;;
7737;SDS011;29398;45.328;5.558;2023-04-15T06:16:09;4.32;;;3.92;;
7737;SDS011;29398;45.328;5.558;2023-04-15T06:17:10;4.10;;;3.70;;
7737;SDS011;29398;45.328;5.558;2023-04-15T06:18:14;2.90;;;2.70;;
7737;SDS011;29398;45.328;5.558;2023-04-15T06:19:15;3.33;;;3.03;;